Terminal Aerodrome Forecast
Issued by NWS Sterling, VA

Current Version | Previous Version | Text Only | Print | Product List | Glossary Off
Versions: 1 2 3 4 5 6 7 8 9 10 11 12 13 14 15 16 17 18 19 20 21 22 23 24 25 26 27 28

000
FTUS41 KLWX 031143 RRB
TAFIAD
TAF
KIAD 031143Z 0312/0418 06004KT P6SM OVC150
     FM031400 15005KT P6SM BKN050
     FM031800 17007KT P6SM OVC030
      TEMPO 0318/0322 6SM -SNPL OVC018
     FM032200 16010KT 3SM BR OVC012
      TEMPO 0322/0401 4SM -FZRA OVC008
     FM040300 20010KT 2SM BR OVC004
     FM041000 21005KT 2SM -RA OVC004=

USA.gov is the U.S. government's official web portal to all federal, state and local government web resources and services.